createdAt,value
2019-06-01T00:04:49.344Z,20.50
2019-06-01T00:09:53.923Z,20.50
2019-06-01T00:14:58.273Z,20.40
2019-06-01T00:20:02.648Z,20.30
2019-06-01T00:25:07.684Z,20.30
2019-06-01T00:30:26.144Z,20.40
2019-06-01T00:35:18.646Z,20.30
2019-06-01T00:40:22.958Z,20.20
2019-06-01T00:45:27.299Z,20.20
2019-06-01T00:50:31.729Z,20.20
2019-06-01T00:55:36.171Z,19.90
2019-06-01T01:00:44.184Z,19.70
2019-06-01T01:05:47.127Z,19.30
2019-06-01T01:10:53.002Z,19.00
2019-06-01T01:15:57.828Z,18.90
2019-06-01T01:21:02.285Z,18.80
2019-06-01T01:26:06.636Z,18.60
2019-06-01T01:31:14.097Z,18.50
2019-06-01T01:36:17.531Z,18.40
2019-06-01T01:41:21.874Z,18.20
2019-06-01T01:46:26.243Z,18.20
2019-06-01T01:51:30.558Z,18.10
2019-06-01T01:56:35.062Z,18.00
2019-06-01T02:01:39.640Z,17.90
2019-06-01T02:06:43.982Z,17.90
2019-06-01T02:11:48.349Z,17.80
2019-06-01T02:16:53.872Z,17.70
2019-06-01T02:22:00.745Z,17.70
2019-06-01T02:27:05.094Z,17.70
2019-06-01T02:32:09.443Z,17.60
2019-06-01T02:37:13.759Z,17.60
2019-06-01T02:42:18.072Z,17.40
2019-06-01T02:47:22.432Z,17.30
2019-06-01T02:52:26.836Z,17.30
2019-06-01T02:57:31.149Z,17.20
2019-06-01T03:02:35.450Z,17.00
2019-06-01T03:07:42.884Z,17.00
2019-06-01T03:12:47.450Z,17.00
2019-06-01T03:17:54.008Z,16.90
2019-06-01T03:22:59.640Z,16.90
2019-06-01T03:28:06.233Z,16.90
2019-06-01T03:33:10.742Z,17.00
2019-06-01T03:38:15.312Z,17.00
2019-06-01T03:43:21.339Z,16.90
2019-06-01T03:48:25.828Z,16.80
2019-06-01T03:53:30.197Z,16.90
2019-06-01T03:58:34.531Z,17.00
2019-06-01T04:03:38.803Z,17.00
2019-06-01T04:08:43.110Z,16.90
2019-06-01T04:13:47.524Z,16.90
2019-06-01T04:18:51.882Z,17.00
2019-06-01T04:23:56.330Z,17.10
2019-06-01T04:29:00.652Z,17.10
2019-06-01T04:34:06.730Z,17.20
2019-06-01T04:39:11.663Z,17.30
2019-06-01T04:44:18.261Z,17.30
2019-06-01T04:49:22.186Z,17.40
2019-06-01T04:54:26.576Z,17.40
2019-06-01T04:59:31.023Z,17.50
2019-06-01T05:04:35.350Z,17.60
2019-06-01T05:09:39.711Z,17.70
2019-06-01T05:14:44.174Z,17.70
2019-06-01T05:19:48.657Z,17.80
2019-06-01T05:24:52.989Z,17.90
2019-06-01T05:29:57.295Z,17.80
2019-06-01T05:35:01.878Z,18.00
2019-06-01T05:40:06.666Z,18.00
2019-06-01T05:45:11.415Z,18.00
2019-06-01T05:50:16.410Z,18.20
2019-06-01T05:55:20.830Z,18.40
2019-06-01T06:00:41.004Z,18.50
2019-06-01T06:05:45.454Z,18.60
2019-06-01T06:10:49.827Z,18.80
2019-06-01T06:15:54.200Z,18.90
2019-06-01T06:20:58.755Z,19.10
2019-06-01T06:26:03.080Z,19.20
2019-06-01T06:31:07.394Z,19.30
2019-06-01T06:36:11.675Z,19.40
2019-06-01T06:41:16.100Z,19.50
2019-06-01T06:46:20.740Z,19.60
2019-06-01T06:51:25.572Z,19.80
2019-06-01T06:56:30.102Z,19.80
2019-06-01T07:01:34.411Z,19.80
2019-06-01T07:06:39.192Z,19.90
2019-06-01T07:11:43.653Z,20.00
2019-06-01T07:16:48.232Z,20.10
2019-06-01T07:21:52.551Z,20.30
2019-06-01T07:26:56.900Z,20.30
2019-06-01T07:32:02.172Z,20.40
2019-06-01T07:37:10.691Z,20.50
2019-06-01T07:42:15.075Z,20.50
2019-06-01T07:47:20.709Z,20.60
2019-06-01T07:52:26.130Z,20.70
2019-06-01T07:57:31.682Z,20.90
2019-06-01T08:02:36.150Z,21.00
2019-06-01T08:07:40.503Z,21.10
2019-06-01T08:12:45.087Z,21.00
2019-06-01T08:17:49.523Z,21.10
2019-06-01T08:22:53.928Z,21.30
2019-06-01T08:27:58.298Z,21.40
2019-06-01T08:33:03.009Z,21.50
2019-06-01T08:38:07.337Z,21.60
2019-06-01T08:43:11.761Z,21.60
2019-06-01T08:48:17.257Z,21.70
2019-06-01T08:53:21.811Z,21.70
2019-06-01T08:58:26.292Z,21.80
2019-06-01T09:03:31.854Z,21.90
2019-06-01T09:08:36.497Z,21.90
2019-06-01T09:13:40.846Z,22.00
2019-06-01T09:18:45.175Z,22.20
2019-06-01T09:23:50.038Z,22.40
2019-06-01T09:28:54.425Z,22.40
2019-06-01T09:33:58.983Z,22.60
2019-06-01T09:39:03.310Z,22.60
2019-06-01T09:44:07.742Z,22.80
2019-06-01T09:49:12.070Z,22.90
2019-06-01T09:54:16.411Z,23.00
2019-06-01T09:59:20.829Z,23.20
2019-06-01T10:04:25.155Z,23.30
2019-06-01T10:09:31.514Z,23.50
2019-06-01T10:14:36.221Z,23.70
2019-06-01T10:19:40.611Z,23.80
2019-06-01T10:24:45.032Z,23.90
2019-06-01T10:29:49.736Z,24.20
2019-06-01T10:34:54.180Z,24.30
2019-06-01T10:39:59.010Z,24.30
2019-06-01T10:45:17.900Z,24.40
2019-06-01T10:50:34.787Z,24.50
2019-06-01T10:55:40.253Z,24.60
2019-06-01T11:00:50.606Z,24.80
2019-06-01T11:05:50.947Z,24.90
2019-06-01T11:10:55.253Z,25.00
2019-06-01T11:16:00.017Z,25.10
2019-06-01T11:21:04.417Z,25.40
2019-06-01T11:26:08.847Z,25.60
2019-06-01T11:31:13.220Z,25.80
2019-06-01T11:36:17.532Z,25.80
2019-06-01T11:41:22.079Z,26.00
2019-06-01T11:46:26.549Z,26.10
2019-06-01T11:51:31.141Z,26.30
2019-06-01T11:56:35.558Z,26.40
2019-06-01T12:01:39.929Z,26.70
2019-06-01T12:06:44.248Z,26.90
2019-06-01T12:11:48.547Z,27.20
2019-06-01T12:16:53.120Z,27.40
2019-06-01T12:21:57.587Z,27.50
2019-06-01T12:27:01.965Z,27.50
2019-06-01T12:32:06.450Z,27.80
2019-06-01T12:37:12.201Z,27.70
2019-06-01T12:42:16.828Z,27.80
2019-06-01T12:47:21.384Z,27.80
2019-06-01T12:52:25.954Z,27.80
2019-06-01T12:57:30.601Z,27.80
2019-06-01T13:02:35.128Z,27.80
2019-06-01T13:07:52.108Z,27.90
2019-06-01T13:12:45.626Z,28.10
2019-06-01T13:17:49.919Z,28.30
2019-06-01T13:22:54.272Z,28.50
2019-06-01T13:27:58.672Z,28.70
2019-06-01T13:33:03.089Z,29.00
2019-06-01T13:38:12.385Z,29.00
2019-06-01T13:43:15.600Z,29.10
2019-06-01T13:48:20.037Z,29.40
2019-06-01T13:53:24.413Z,29.70
2019-06-01T13:58:29.536Z,30.00
2019-06-01T14:03:33.863Z,29.90
2019-06-01T14:08:38.179Z,30.10
2019-06-01T14:13:43.123Z,30.30
2019-06-01T14:18:47.708Z,30.00
2019-06-01T14:23:52.280Z,29.90
2019-06-01T14:28:56.587Z,29.90
2019-06-01T14:34:00.921Z,30.10
2019-06-01T14:39:07.206Z,30.00
2019-06-01T14:44:11.600Z,29.80
2019-06-01T14:49:16.054Z,29.80
2019-06-01T14:54:20.420Z,29.70
2019-06-01T14:59:43.805Z,29.80
2019-06-01T15:04:48.348Z,30.00
2019-06-01T15:09:52.656Z,30.20
2019-06-01T15:14:57.578Z,30.30
2019-06-01T15:20:02.682Z,30.10
2019-06-01T15:25:08.095Z,30.10
2019-06-01T15:30:14.446Z,30.20
2019-06-01T15:35:18.961Z,30.20
2019-06-01T15:40:23.468Z,30.40
2019-06-01T15:45:27.806Z,30.50
2019-06-01T15:50:32.155Z,30.60
2019-06-01T15:55:36.462Z,30.50
2019-06-01T16:00:40.771Z,30.40
2019-06-01T16:05:45.095Z,30.30
2019-06-01T16:10:49.396Z,30.20
2019-06-01T16:15:53.701Z,30.20
2019-06-01T16:20:58.112Z,30.30
2019-06-01T16:26:13.287Z,30.30
2019-06-01T16:31:08.624Z,30.40
2019-06-01T16:36:12.918Z,30.40
2019-06-01T16:41:17.264Z,30.40
2019-06-01T16:46:21.673Z,30.40
2019-06-01T16:51:26.164Z,30.40
2019-06-01T16:56:30.539Z,30.30
2019-06-01T17:01:34.906Z,30.10
2019-06-01T17:06:40.088Z,30.00
2019-06-01T17:11:44.783Z,29.90
2019-06-01T17:16:49.347Z,29.90
2019-06-01T17:21:53.796Z,29.90
2019-06-01T17:26:58.134Z,29.60
2019-06-01T17:32:16.736Z,29.50
2019-06-01T17:37:08.977Z,29.50
2019-06-01T17:42:13.345Z,29.30
2019-06-01T17:47:17.811Z,29.10
2019-06-01T17:52:22.303Z,29.00
2019-06-01T17:57:26.622Z,28.90
2019-06-01T18:02:31.037Z,28.80
2019-06-01T18:07:35.365Z,28.60
2019-06-01T18:12:39.692Z,28.60
2019-06-01T18:17:48.617Z,28.60
2019-06-01T18:22:53.242Z,28.60
2019-06-01T18:27:57.881Z,28.40
2019-06-01T18:33:02.966Z,28.40
2019-06-01T18:38:07.829Z,28.30
2019-06-01T18:43:16.712Z,28.20
2019-06-01T18:48:21.886Z,28.10
2019-06-01T18:53:26.796Z,28.00
2019-06-01T18:58:31.163Z,27.90
2019-06-01T19:03:39.387Z,27.80
2019-06-01T19:08:43.746Z,27.70
2019-06-01T19:13:48.069Z,27.40
2019-06-01T19:18:52.502Z,27.20
2019-06-01T19:23:56.884Z,27.00
2019-06-01T19:29:01.384Z,26.90
2019-06-01T19:34:06.849Z,26.60
2019-06-01T19:39:13.422Z,26.40
2019-06-01T19:44:17.968Z,26.20
2019-06-01T19:49:23.032Z,26.10
2019-06-01T19:54:27.457Z,25.80
2019-06-01T19:59:33.214Z,25.80
2019-06-01T20:04:41.372Z,25.60
2019-06-01T20:09:45.695Z,25.60
2019-06-01T20:14:50.066Z,25.50
2019-06-01T20:19:54.410Z,25.40
2019-06-01T20:24:58.760Z,25.30
2019-06-01T20:30:03.218Z,25.20
2019-06-01T20:35:07.975Z,25.00
2019-06-01T20:40:12.575Z,24.90
2019-06-01T20:45:18.811Z,24.80
2019-06-01T20:50:23.380Z,24.50
2019-06-01T20:55:27.747Z,24.50
2019-06-01T21:00:32.150Z,24.40
2019-06-01T21:05:36.615Z,24.40
2019-06-01T21:10:41.043Z,24.30
2019-06-01T21:15:45.499Z,24.30
2019-06-01T21:20:50.023Z,24.30
2019-06-01T21:25:54.620Z,24.20
2019-06-01T21:30:59.016Z,24.00
2019-06-01T21:36:03.423Z,23.90
2019-06-01T21:41:07.761Z,23.80
2019-06-01T21:46:12.162Z,23.60
2019-06-01T21:56:26.878Z,23.40
2019-06-01T22:01:31.214Z,23.20
2019-06-01T22:06:35.594Z,23.20
2019-06-01T22:11:39.991Z,23.30
2019-06-01T22:16:44.316Z,23.10
2019-06-01T22:21:48.710Z,23.00
2019-06-01T22:26:53.023Z,22.90
2019-06-01T22:31:57.356Z,22.80
2019-06-01T22:37:01.994Z,22.70
2019-06-01T22:42:06.317Z,22.50
2019-06-01T22:47:10.730Z,22.50
2019-06-01T22:52:15.198Z,22.30
2019-06-01T22:57:20.318Z,22.20
2019-06-01T23:02:25.678Z,22.20
2019-06-01T23:07:31.597Z,22.10
2019-06-01T23:12:36.191Z,22.10
2019-06-01T23:17:40.507Z,22.20
2019-06-01T23:22:44.788Z,22.10
2019-06-01T23:27:49.245Z,22.10
2019-06-01T23:32:53.640Z,22.00
2019-06-01T23:37:58.011Z,22.10
2019-06-01T23:43:02.359Z,22.20
2019-06-01T23:48:06.942Z,22.20
2019-06-01T23:53:13.953Z,22.10
2019-06-01T23:58:17.559Z,21.90
